Time,TemperatureF,DewpointF,PressureIn,WindDirection,WindDirectionDegrees,WindSpeedMPH,WindSpeedGustMPH,Humidity,HourlyPrecipIn,Conditions,Clouds,dailyrainin,SoftwareType,DateUTC
2013-01-13 00:04:00,34.0,34.0,29.89,NE,45,3.0,3.0,100,0.00,,,0.00,TxWx,2013-01-13 05:04:00,
2013-01-13 00:09:00,34.0,34.0,29.89,West,270,1.0,2.0,100,0.00,,,0.00,TxWx,2013-01-13 05:09:00,
2013-01-13 00:14:00,34.0,34.0,29.89,SSW,202,1.0,1.0,100,0.00,,,0.00,TxWx,2013-01-13 05:14:00,
2013-01-13 00:19:00,34.0,34.0,29.89,SSW,202,0.0,0.0,100,0.00,,,0.00,TxWx,2013-01-13 05:19:00,
2013-01-13 00:24:00,34.0,34.0,29.89,SSW,202,1.0,1.0,100,0.00,,,0.00,TxWx,2013-01-13 05:24:00,
2013-01-13 00:29:00,34.0,34.0,29.88,SSW,202,1.0,1.0,100,0.00,,,0.00,TxWx,2013-01-13 05:29:00,
2013-01-13 00:34:00,33.0,33.0,29.89,SW,225,4.0,5.0,100,0.00,,,0.00,TxWx,2013-01-13 05:34:00,
2013-01-13 00:39:00,33.0,33.0,29.89,SSW,202,2.0,3.0,100,0.00,,,0.00,TxWx,2013-01-13 05:39:00,
2013-01-13 00:44:00,34.0,34.0,29.89,South,180,1.0,1.0,100,0.00,,,0.00,TxWx,2013-01-13 05:44:00,
2013-01-13 00:50:00,34.0,34.0,29.89,ENE,67,2.0,2.0,100,0.00,,,0.00,TxWx,2013-01-13 05:50:00,
2013-01-13 00:55:00,34.0,34.0,29.89,South,180,0.0,0.0,100,0.00,,,0.01,TxWx,2013-01-13 05:55:00,
2013-01-13 01:00:00,33.0,33.0,29.90,SW,225,2.0,2.0,100,0.00,,,0.01,TxWx,2013-01-13 06:00:00,
2013-01-13 01:05:00,33.0,33.0,29.90,NE,45,1.0,2.0,100,0.60,,,0.01,TxWx,2013-01-13 06:05:00,
2013-01-13 01:10:00,33.0,33.0,29.90,SE,135,1.0,1.0,100,0.60,,,0.01,TxWx,2013-01-13 06:10:00,
2013-01-13 01:15:00,33.0,33.0,29.90,ESE,112,1.0,1.0,100,0.00,,,0.01,TxWx,2013-01-13 06:15:00,
2013-01-13 01:20:00,33.0,33.0,29.90,South,180,1.0,1.0,100,0.00,,,0.01,TxWx,2013-01-13 06:20:00,
2013-01-13 01:25:00,33.0,33.0,29.90,SSE,157,1.0,1.0,100,0.00,,,0.01,TxWx,2013-01-13 06:25:00,
2013-01-13 01:30:00,33.0,33.0,29.90,ESE,112,1.0,1.0,100,0.00,,,0.01,TxWx,2013-01-13 06:30:00,
2013-01-13 01:35:00,33.0,33.0,29.90,South,180,1.0,1.0,100,0.00,,,0.01,TxWx,2013-01-13 06:35:00,
2013-01-13 01:40:00,33.0,33.0,29.90,SE,135,1.0,1.0,100,0.00,,,0.01,TxWx,2013-01-13 06:40:00,
2013-01-13 01:46:00,33.0,33.0,29.90,NE,45,3.0,3.0,100,0.00,,,0.01,TxWx,2013-01-13 06:46:00,
2013-01-13 01:51:00,33.0,33.0,29.90,SE,135,1.0,1.0,100,0.00,,,0.01,TxWx,2013-01-13 06:51:00,
2013-01-13 01:56:00,33.0,33.0,29.90,SW,225,1.0,2.0,100,0.00,,,0.01,TxWx,2013-01-13 06:56:00,
2013-01-13 02:01:00,32.0,32.0,29.90,SE,135,1.0,2.0,100,0.00,,,0.01,TxWx,2013-01-13 07:01:00,
2013-01-13 02:06:00,33.0,33.0,29.91,South,180,0.0,0.0,100,0.00,,,0.01,TxWx,2013-01-13 07:06:00,
2013-01-13 02:11:00,33.0,33.0,29.91,SW,225,1.0,1.0,100,0.00,,,0.01,TxWx,2013-01-13 07:11:00,
2013-01-13 02:16:00,33.0,33.0,29.90,South,180,1.0,2.0,100,0.00,,,0.01,TxWx,2013-01-13 07:16:00,
2013-01-13 02:21:00,32.0,32.0,29.90,South,180,1.0,1.0,100,0.00,,,0.01,TxWx,2013-01-13 07:21:00,
2013-01-13 02:26:00,33.0,33.0,29.90,SSE,157,1.0,1.0,100,0.00,,,0.01,TxWx,2013-01-13 07:26:00,
2013-01-13 02:31:00,33.0,33.0,29.90,ESE,112,2.0,3.0,100,0.00,,,0.01,TxWx,2013-01-13 07:31:00,
2013-01-13 02:37:00,33.0,33.0,29.88,SSW,202,1.0,1.0,100,0.00,,,0.01,TxWx,2013-01-13 07:37:00,
2013-01-13 02:42:00,32.0,32.0,29.87,ENE,67,2.0,3.0,100,0.00,,,0.01,TxWx,2013-01-13 07:42:00,
2013-01-13 02:47:00,32.0,32.0,29.90,SSW,202,3.0,3.0,100,0.00,,,0.01,TxWx,2013-01-13 07:47:00,
2013-01-13 02:52:00,32.0,32.0,29.89,East,90,2.0,3.0,100,0.00,,,0.01,TxWx,2013-01-13 07:52:00,
2013-01-13 02:57:00,32.0,32.0,29.90,SSW,202,4.0,4.0,100,0.00,,,0.01,TxWx,2013-01-13 07:57:00,
2013-01-13 03:02:00,32.0,32.0,29.90,SE,135,1.0,1.0,100,0.00,,,0.01,TxWx,2013-01-13 08:02:00,
2013-01-13 03:07:00,32.0,32.0,29.89,South,180,2.0,2.0,100,0.00,,,0.01,TxWx,2013-01-13 08:07:00,
2013-01-13 03:12:00,32.0,32.0,29.88,ESE,112,2.0,3.0,100,0.60,,,0.02,TxWx,2013-01-13 08:12:00,
2013-01-13 03:17:00,32.0,32.0,29.88,ESE,112,1.0,1.0,100,0.60,,,0.02,TxWx,2013-01-13 08:17:00,
2013-01-13 03:22:00,32.0,32.0,29.87,SE,135,3.0,3.0,100,0.00,,,0.02,TxWx,2013-01-13 08:22:00,
2013-01-13 03:27:00,32.0,32.0,29.88,SW,225,1.0,1.0,100,0.00,,,0.02,TxWx,2013-01-13 08:27:00,
2013-01-13 03:33:00,32.0,32.0,29.90,South,180,1.0,2.0,100,0.00,,,0.02,TxWx,2013-01-13 08:33:00,
2013-01-13 03:38:00,32.0,32.0,29.89,NNE,22,1.0,2.0,100,0.00,,,0.02,TxWx,2013-01-13 08:38:00,
2013-01-13 03:43:00,33.0,33.0,29.89,NNE,22,2.0,3.0,100,0.00,,,0.02,TxWx,2013-01-13 08:43:00,
2013-01-13 03:48:00,33.0,33.0,29.88,SSW,202,1.0,1.0,100,0.00,,,0.02,TxWx,2013-01-13 08:48:00,
2013-01-13 03:53:00,33.0,33.0,29.88,SSW,202,1.0,1.0,100,0.00,,,0.02,TxWx,2013-01-13 08:53:00,
2013-01-13 03:58:00,33.0,33.0,29.88,SSW,202,0.0,1.0,100,0.00,,,0.02,TxWx,2013-01-13 08:58:00,
2013-01-13 04:03:00,33.0,33.0,29.89,South,180,1.0,1.0,100,0.00,,,0.02,TxWx,2013-01-13 09:03:00,
2013-01-13 04:08:00,33.0,33.0,29.89,NE,45,2.0,2.0,100,0.00,,,0.02,TxWx,2013-01-13 09:08:00,
2013-01-13 04:13:00,33.0,33.0,29.88,ESE,112,3.0,3.0,100,0.00,,,0.02,TxWx,2013-01-13 09:13:00,
2013-01-13 04:18:00,33.0,33.0,29.87,ESE,112,2.0,3.0,100,0.00,,,0.02,TxWx,2013-01-13 09:18:00,
2013-01-13 04:24:00,33.0,33.0,29.88,South,180,1.0,1.0,100,0.00,,,0.02,TxWx,2013-01-13 09:24:00,
2013-01-13 04:29:00,33.0,33.0,29.87,ESE,112,1.0,2.0,100,0.00,,,0.02,TxWx,2013-01-13 09:29:00,
2013-01-13 04:34:00,33.0,33.0,29.86,East,90,1.0,1.0,100,0.00,,,0.02,TxWx,2013-01-13 09:34:00,
2013-01-13 04:39:00,33.0,33.0,29.86,South,180,1.0,1.0,100,0.00,,,0.02,TxWx,2013-01-13 09:39:00,
2013-01-13 04:44:00,33.0,33.0,29.85,SSW,202,1.0,1.0,100,0.00,,,0.02,TxWx,2013-01-13 09:44:00,
2013-01-13 04:49:00,32.0,32.0,29.86,SSW,202,2.0,2.0,100,0.00,,,0.02,TxWx,2013-01-13 09:49:00,
2013-01-13 04:54:00,33.0,33.0,29.85,SSW,202,1.0,2.0,100,0.00,,,0.02,TxWx,2013-01-13 09:54:00,
2013-01-13 04:59:00,33.0,33.0,29.85,SE,135,3.0,3.0,100,0.00,,,0.02,TxWx,2013-01-13 09:59:00,
2013-01-13 05:04:00,33.0,33.0,29.85,SE,135,1.0,1.0,100,0.00,,,0.02,TxWx,2013-01-13 10:04:00,
2013-01-13 05:09:00,33.0,33.0,29.85,ESE,112,1.0,2.0,100,0.00,,,0.02,TxWx,2013-01-13 10:09:00,
2013-01-13 05:14:00,33.0,33.0,29.85,ENE,67,2.0,2.0,100,0.00,,,0.02,TxWx,2013-01-13 10:14:00,
2013-01-13 05:19:00,33.0,33.0,29.85,SSE,157,0.0,1.0,100,0.00,,,0.02,TxWx,2013-01-13 10:19:00,
2013-01-13 05:24:00,33.0,33.0,29.84,SE,135,1.0,1.0,100,0.00,,,0.02,TxWx,2013-01-13 10:24:00,
2013-01-13 05:29:00,33.0,33.0,29.85,South,180,1.0,1.0,100,0.00,,,0.02,TxWx,2013-01-13 10:29:00,
2013-01-13 05:34:00,32.0,32.0,29.85,SSE,157,1.0,1.0,100,0.00,,,0.02,TxWx,2013-01-13 10:34:00,
2013-01-13 05:40:00,32.0,32.0,29.85,South,180,1.0,1.0,100,0.00,,,0.02,TxWx,2013-01-13 10:40:00,
2013-01-13 05:45:00,32.0,32.0,29.85,SSE,157,1.0,1.0,100,0.00,,,0.02,TxWx,2013-01-13 10:45:00,
2013-01-13 05:50:00,32.0,32.0,29.85,SSW,202,1.0,1.0,100,0.00,,,0.03,TxWx,2013-01-13 10:50:00,
2013-01-13 05:55:00,32.0,32.0,29.85,SSE,157,1.0,2.0,100,0.60,,,0.03,TxWx,2013-01-13 10:55:00,
2013-01-13 06:00:00,32.0,32.0,29.85,NNE,22,1.0,1.0,100,0.60,,,0.03,TxWx,2013-01-13 11:00:00,
2013-01-13 06:05:00,32.0,32.0,29.84,ESE,112,3.0,3.0,100,0.00,,,0.03,TxWx,2013-01-13 11:05:00,
2013-01-13 06:10:00,32.0,32.0,29.85,SSE,157,1.0,3.0,100,0.00,,,0.03,TxWx,2013-01-13 11:10:00,
2013-01-13 06:15:00,32.0,32.0,29.86,South,180,0.0,1.0,100,0.00,,,0.03,TxWx,2013-01-13 11:15:00,
2013-01-13 06:20:00,32.0,32.0,29.85,South,180,0.0,1.0,100,0.00,,,0.03,TxWx,2013-01-13 11:20:00,
2013-01-13 06:25:00,32.0,32.0,29.85,ESE,112,2.0,2.0,100,0.00,,,0.03,TxWx,2013-01-13 11:25:00,
2013-01-13 06:30:00,32.0,32.0,29.85,ESE,112,3.0,3.0,100,0.00,,,0.03,TxWx,2013-01-13 11:30:00,
2013-01-13 06:35:00,32.0,32.0,29.84,ESE,112,1.0,3.0,100,0.00,,,0.03,TxWx,2013-01-13 11:35:00,
2013-01-13 06:40:00,32.0,32.0,29.85,WSW,247,1.0,3.0,100,0.00,,,0.03,TxWx,2013-01-13 11:40:00,
2013-01-13 06:45:00,32.0,32.0,29.85,SE,135,1.0,1.0,100,0.00,,,0.03,TxWx,2013-01-13 11:45:00,
2013-01-13 06:50:00,32.0,32.0,29.84,SSE,157,1.0,1.0,100,0.00,,,0.03,TxWx,2013-01-13 11:50:00,
2013-01-13 06:55:00,32.0,32.0,29.85,South,180,1.0,1.0,100,0.00,,,0.03,TxWx,2013-01-13 11:55:00,
2013-01-13 07:00:00,32.0,32.0,29.85,South,180,0.0,0.0,100,0.00,,,0.03,TxWx,2013-01-13 12:00:00,
2013-01-13 07:05:00,32.0,32.0,29.86,South,180,0.0,0.0,100,0.00,,,0.03,TxWx,2013-01-13 12:05:00,
2013-01-13 07:10:00,32.0,32.0,29.85,SE,135,1.0,2.0,100,0.00,,,0.03,TxWx,2013-01-13 12:10:00,
2013-01-13 07:15:00,32.0,32.0,29.85,SE,135,1.0,1.0,100,0.00,,,0.03,TxWx,2013-01-13 12:15:00,
2013-01-13 07:20:00,32.0,32.0,29.85,ESE,112,3.0,3.0,100,0.00,,,0.03,TxWx,2013-01-13 12:20:00,
2013-01-13 07:25:00,32.0,32.0,29.85,SE,135,1.0,2.0,100,0.00,,,0.03,TxWx,2013-01-13 12:25:00,
2013-01-13 07:30:00,32.0,32.0,29.85,SE,135,2.0,2.0,100,0.00,,,0.03,TxWx,2013-01-13 12:30:00,
2013-01-13 07:35:00,32.0,32.0,29.85,South,180,0.0,0.0,100,0.00,,,0.03,TxWx,2013-01-13 12:35:00,
2013-01-13 07:40:00,32.0,32.0,29.84,SE,135,1.0,1.0,100,0.00,,,0.03,TxWx,2013-01-13 12:40:00,
2013-01-13 07:45:00,32.0,32.0,29.84,SE,135,1.0,1.0,100,0.00,,,0.03,TxWx,2013-01-13 12:45:00,
2013-01-13 07:50:00,32.0,32.0,29.84,ESE,112,2.0,3.0,100,0.00,,,0.03,TxWx,2013-01-13 12:50:00,
2013-01-13 07:55:00,32.0,32.0,29.84,SSE,157,0.0,1.0,100,0.00,,,0.03,TxWx,2013-01-13 12:55:00,
2013-01-13 08:00:00,32.0,32.0,29.84,SE,135,2.0,2.0,100,0.00,,,0.03,TxWx,2013-01-13 13:00:00,
2013-01-13 08:05:00,32.0,32.0,29.84,SE,135,1.0,2.0,100,0.00,,,0.03,TxWx,2013-01-13 13:05:00,
2013-01-13 08:10:00,32.0,32.0,29.83,ESE,112,3.0,5.0,100,0.00,,,0.03,TxWx,2013-01-13 13:10:00,
2013-01-13 08:15:00,32.0,32.0,29.83,East,90,2.0,3.0,100,0.00,,,0.03,TxWx,2013-01-13 13:15:00,
2013-01-13 08:20:00,32.0,32.0,29.84,SSE,157,2.0,3.0,100,0.00,,,0.03,TxWx,2013-01-13 13:20:00,
2013-01-13 08:25:00,32.0,32.0,29.84,SW,225,1.0,1.0,100,0.00,,,0.03,TxWx,2013-01-13 13:25:00,
2013-01-13 08:30:00,32.0,32.0,29.85,NNW,337,2.0,2.0,100,0.00,,,0.03,TxWx,2013-01-13 13:30:00,
2013-01-13 08:35:00,32.0,32.0,29.86,WNW,292,2.0,2.0,100,0.00,,,0.04,TxWx,2013-01-13 13:35:00,
2013-01-13 08:40:00,32.0,32.0,29.86,NW,315,2.0,2.0,100,0.60,,,0.04,TxWx,2013-01-13 13:40:00,
2013-01-13 08:45:00,32.0,32.0,29.85,East,90,5.0,5.0,100,0.60,,,0.04,TxWx,2013-01-13 13:45:00,
2013-01-13 08:50:00,32.0,32.0,29.84,East,90,3.0,3.0,100,0.00,,,0.04,TxWx,2013-01-13 13:50:00,
2013-01-13 08:55:00,33.0,33.0,29.84,East,90,4.0,5.0,100,0.00,,,0.04,TxWx,2013-01-13 13:55:00,
2013-01-13 09:00:00,33.0,33.0,29.84,ESE,112,3.0,5.0,100,0.00,,,0.04,TxWx,2013-01-13 14:00:00,
2013-01-13 09:05:00,33.0,33.0,29.84,SSW,202,1.0,1.0,100,0.00,,,0.04,TxWx,2013-01-13 14:05:00,
2013-01-13 09:10:00,33.0,33.0,29.84,ENE,67,3.0,3.0,100,0.00,,,0.04,TxWx,2013-01-13 14:10:00,
2013-01-13 09:15:00,33.0,33.0,29.84,SSE,157,1.0,1.0,100,0.00,,,0.04,TxWx,2013-01-13 14:15:00,
2013-01-13 09:20:00,33.0,33.0,29.83,SE,135,3.0,3.0,100,0.00,,,0.04,TxWx,2013-01-13 14:20:00,
2013-01-13 09:25:00,33.0,33.0,29.83,ENE,67,2.0,2.0,100,0.00,,,0.04,TxWx,2013-01-13 14:25:00,
2013-01-13 09:31:00,34.0,34.0,29.83,SSE,157,1.0,1.0,100,0.00,,,0.04,TxWx,2013-01-13 14:31:00,
2013-01-13 09:36:00,34.0,34.0,29.83,ESE,112,1.0,1.0,100,0.00,,,0.04,TxWx,2013-01-13 14:36:00,
2013-01-13 09:41:00,35.0,35.0,29.83,SSW,202,1.0,1.0,100,0.60,,,0.05,TxWx,2013-01-13 14:41:00,
2013-01-13 09:46:00,35.0,35.0,29.84,SSW,202,1.0,1.0,100,0.60,,,0.05,TxWx,2013-01-13 14:46:00,
2013-01-13 09:51:00,35.0,35.0,29.84,SW,225,2.0,2.0,100,0.00,,,0.05,TxWx,2013-01-13 14:51:00,
2013-01-13 09:56:00,35.0,35.0,29.83,South,180,0.0,1.0,100,0.00,,,0.05,TxWx,2013-01-13 14:56:00,
2013-01-13 10:01:00,35.0,35.0,29.83,South,180,1.0,3.0,100,0.60,,,0.06,TxWx,2013-01-13 15:01:00,
2013-01-13 10:06:00,35.0,35.0,29.83,East,90,2.0,3.0,100,0.60,,,0.06,TxWx,2013-01-13 15:06:00,
2013-01-13 10:11:00,36.0,36.0,29.82,ESE,112,2.0,2.0,100,0.00,,,0.06,TxWx,2013-01-13 15:11:00,
2013-01-13 10:16:00,36.0,36.0,29.83,NNE,22,3.0,4.0,100,0.00,,,0.06,TxWx,2013-01-13 15:16:00,
2013-01-13 10:21:00,36.0,36.0,29.83,NNE,22,2.0,3.0,100,0.00,,,0.07,TxWx,2013-01-13 15:21:00,
2013-01-13 10:26:00,37.0,37.0,29.83,East,90,2.0,3.0,100,0.00,,,0.07,TxWx,2013-01-13 15:26:00,
2013-01-13 10:31:00,37.0,37.0,29.82,ESE,112,4.0,4.0,100,0.60,,,0.07,TxWx,2013-01-13 15:31:00,
2013-01-13 10:36:00,37.0,37.0,29.82,South,180,1.0,1.0,100,0.60,,,0.07,TxWx,2013-01-13 15:36:00,
2013-01-13 10:41:00,38.0,38.0,29.82,SW,225,1.0,2.0,100,0.00,,,0.07,TxWx,2013-01-13 15:41:00,
2013-01-13 10:46:00,38.0,38.0,29.82,East,90,1.0,2.0,100,0.00,,,0.07,TxWx,2013-01-13 15:46:00,
2013-01-13 10:51:00,38.0,38.0,29.82,East,90,3.0,3.0,100,0.60,,,0.08,TxWx,2013-01-13 15:51:00,
2013-01-13 10:56:00,38.0,38.0,29.82,ENE,67,2.0,2.0,100,0.60,,,0.08,TxWx,2013-01-13 15:56:00,
2013-01-13 11:01:00,38.0,38.0,29.81,East,90,4.0,5.0,100,0.00,,,0.08,TxWx,2013-01-13 16:01:00,
2013-01-13 11:06:00,38.0,38.0,29.81,East,90,3.0,4.0,100,0.00,,,0.08,TxWx,2013-01-13 16:06:00,
2013-01-13 11:11:00,38.0,38.0,29.80,ESE,112,2.0,2.0,100,0.00,,,0.08,TxWx,2013-01-13 16:11:00,
2013-01-13 11:16:00,38.0,38.0,29.80,ENE,67,4.0,4.0,100,0.00,,,0.08,TxWx,2013-01-13 16:16:00,
2013-01-13 11:21:00,38.0,38.0,29.80,North,0,3.0,4.0,100,0.00,,,0.08,TxWx,2013-01-13 16:21:00,
2013-01-13 11:26:00,38.0,38.0,29.79,East,90,2.0,4.0,100,0.00,,,0.09,TxWx,2013-01-13 16:26:00,
2013-01-13 11:31:00,39.0,39.0,29.79,NE,45,4.0,5.0,100,0.60,,,0.09,TxWx,2013-01-13 16:31:00,
2013-01-13 11:37:00,39.0,39.0,29.79,ESE,112,3.0,5.0,100,0.60,,,0.09,TxWx,2013-01-13 16:37:00,
2013-01-13 11:42:00,39.0,39.0,29.78,ENE,67,3.0,3.0,100,0.00,,,0.09,TxWx,2013-01-13 16:42:00,
2013-01-13 11:47:00,39.0,39.0,29.78,ENE,67,6.0,6.0,100,0.00,,,0.09,TxWx,2013-01-13 16:47:00,
2013-01-13 11:52:00,40.0,40.0,29.77,NNE,22,6.0,7.0,100,0.00,,,0.09,TxWx,2013-01-13 16:52:00,
2013-01-13 11:57:00,40.0,40.0,29.78,SE,135,2.0,2.0,100,0.00,,,0.09,TxWx,2013-01-13 16:57:00,
2013-01-13 12:02:00,40.0,40.0,29.77,East,90,3.0,4.0,100,0.00,,,0.09,TxWx,2013-01-13 17:02:00,
2013-01-13 12:07:00,41.0,41.0,29.77,SE,135,3.0,4.0,100,0.00,,,0.09,TxWx,2013-01-13 17:07:00,
2013-01-13 12:12:00,41.0,41.0,29.76,ENE,67,4.0,5.0,100,0.00,,,0.09,TxWx,2013-01-13 17:12:00,
2013-01-13 12:17:00,41.0,41.0,29.75,East,90,5.0,5.0,100,0.00,,,0.09,TxWx,2013-01-13 17:17:00,
2013-01-13 12:22:00,41.0,41.0,29.74,ESE,112,3.0,5.0,100,0.00,,,0.09,TxWx,2013-01-13 17:22:00,
2013-01-13 12:27:00,42.0,42.0,29.74,South,180,2.0,3.0,100,0.00,,,0.09,TxWx,2013-01-13 17:27:00,
2013-01-13 12:32:00,42.0,42.0,29.74,ESE,112,2.0,2.0,100,0.00,,,0.09,TxWx,2013-01-13 17:32:00,
2013-01-13 12:37:00,42.0,42.0,29.74,NNE,22,1.0,2.0,100,0.00,,,0.09,TxWx,2013-01-13 17:37:00,
2013-01-13 12:42:00,43.0,43.0,29.74,SSE,157,1.0,1.0,100,0.00,,,0.09,TxWx,2013-01-13 17:42:00,
2013-01-13 12:48:00,43.0,43.0,29.74,SSE,157,1.0,1.0,100,0.00,,,0.09,TxWx,2013-01-13 17:48:00,
2013-01-13 12:53:00,43.0,43.0,29.73,ENE,67,4.0,4.0,100,0.00,,,0.09,TxWx,2013-01-13 17:53:00,
2013-01-13 12:58:00,43.0,43.0,29.73,South,180,1.0,1.0,100,0.00,,,0.09,TxWx,2013-01-13 17:58:00,
2013-01-13 13:03:00,44.0,44.0,29.72,SE,135,2.0,3.0,100,0.00,,,0.09,TxWx,2013-01-13 18:03:00,
2013-01-13 13:08:00,44.0,44.0,29.72,NW,315,3.0,3.0,100,0.00,,,0.09,TxWx,2013-01-13 18:08:00,
2013-01-13 13:13:00,44.0,44.0,29.72,East,90,1.0,2.0,100,0.00,,,0.09,TxWx,2013-01-13 18:13:00,
2013-01-13 13:18:00,45.0,45.0,29.71,East,90,2.0,5.0,100,0.00,,,0.09,TxWx,2013-01-13 18:18:00,
2013-01-13 13:23:00,45.0,45.0,29.71,ENE,67,4.0,4.0,100,0.00,,,0.09,TxWx,2013-01-13 18:23:00,
2013-01-13 13:28:00,46.0,46.0,29.71,East,90,3.0,4.0,100,0.00,,,0.09,TxWx,2013-01-13 18:28:00,
2013-01-13 13:33:00,46.0,46.0,29.71,WSW,247,4.0,4.0,100,0.00,,,0.09,TxWx,2013-01-13 18:33:00,
2013-01-13 13:38:00,47.0,47.0,29.70,NE,45,2.0,3.0,100,0.00,,,0.09,TxWx,2013-01-13 18:38:00,
2013-01-13 13:43:00,47.0,47.0,29.70,North,0,4.0,4.0,100,0.00,,,0.09,TxWx,2013-01-13 18:43:00,
2013-01-13 13:48:00,47.0,47.0,29.70,East,90,4.0,5.0,100,0.00,,,0.09,TxWx,2013-01-13 18:48:00,
2013-01-13 13:53:00,47.0,47.0,29.70,NE,45,2.0,3.0,100,0.00,,,0.09,TxWx,2013-01-13 18:53:00,
2013-01-13 13:58:00,47.0,47.0,29.70,SSW,202,1.0,1.0,100,0.00,,,0.09,TxWx,2013-01-13 18:58:00,
2013-01-13 13:59:00,42.0,42.0,29.71,SE,135,1.0,1.0,100,0.00,,,0.09,TxWx,2013-01-13 18:59:00,
2013-01-13 14:01:00,41.0,41.0,29.70,SE,135,1.0,2.0,100,0.00,,,0.00,TxWx,2013-01-13 19:01:00,
2013-01-13 14:02:00,41.0,41.0,29.71,ESE,112,2.0,2.0,100,0.00,,,0.00,TxWx,2013-01-13 19:02:00,
2013-01-13 14:03:00,41.0,41.0,29.70,ENE,67,1.0,2.0,100,0.00,,,0.00,TxWx,2013-01-13 19:03:00,
2013-01-13 14:04:00,48.0,48.0,29.71,NNE,22,3.0,3.0,100,0.00,,,0.09,TxWx,2013-01-13 19:04:00,
2013-01-13 14:05:00,41.0,41.0,29.70,SE,135,1.0,1.0,100,0.00,,,0.00,TxWx,2013-01-13 19:05:00,
2013-01-13 14:06:00,41.0,41.0,29.70,SE,135,2.0,2.0,100,0.00,,,0.00,TxWx,2013-01-13 19:06:00,
2013-01-13 14:07:00,41.0,41.0,29.70,SSE,157,1.0,2.0,100,0.00,,,0.00,TxWx,2013-01-13 19:07:00,
2013-01-13 14:08:00,41.0,41.0,29.70,NW,315,2.0,2.0,100,0.00,,,0.00,TxWx,2013-01-13 19:08:00,
2013-01-13 14:09:00,48.0,48.0,29.70,South,180,2.0,3.0,100,0.00,,,0.09,TxWx,2013-01-13 19:09:00,
2013-01-13 14:14:00,48.0,48.0,29.72,South,180,2.0,4.0,100,0.00,,,0.09,TxWx,2013-01-13 19:14:00,
2013-01-13 14:16:00,41.0,41.0,29.70,South,180,1.0,1.0,100,0.00,,,0.00,TxWx,2013-01-13 19:16:00,
2013-01-13 14:17:00,41.0,41.0,29.70,ESE,112,1.0,1.0,100,0.00,,,0.00,TxWx,2013-01-13 19:17:00,
2013-01-13 14:18:00,41.0,41.0,29.70,ENE,67,1.0,2.0,100,0.00,,,0.00,TxWx,2013-01-13 19:18:00,
2013-01-13 14:19:00,48.0,48.0,29.72,SW,225,3.0,4.0,100,0.00,,,0.09,TxWx,2013-01-13 19:19:00,
2013-01-13 14:21:00,40.0,40.0,29.70,NNE,22,3.0,3.0,100,0.00,,,0.00,TxWx,2013-01-13 19:21:00,
2013-01-13 14:22:00,40.0,40.0,29.70,NE,45,3.0,3.0,100,0.00,,,0.00,TxWx,2013-01-13 19:22:00,
2013-01-13 14:23:00,40.0,40.0,29.70,NNE,22,3.0,3.0,100,0.00,,,0.00,TxWx,2013-01-13 19:23:00,
2013-01-13 14:24:00,48.0,48.0,29.72,SE,135,1.0,3.0,100,0.00,,,0.09,TxWx,2013-01-13 19:24:00,
2013-01-13 14:25:00,40.0,40.0,29.70,South,180,1.0,3.0,100,0.00,,,0.00,TxWx,2013-01-13 19:25:00,
2013-01-13 14:29:00,48.0,48.0,29.72,South,180,1.0,1.0,100,0.00,,,0.09,TxWx,2013-01-13 19:29:00,
2013-01-13 14:34:00,48.0,48.0,29.71,SW,225,1.0,2.0,100,0.00,,,0.09,TxWx,2013-01-13 19:34:00,
2013-01-13 14:39:00,48.0,48.0,29.71,SE,135,3.0,3.0,100,0.00,,,0.09,TxWx,2013-01-13 19:39:00,
2013-01-13 14:44:00,48.0,48.0,29.71,SE,135,3.0,4.0,100,0.00,,,0.09,TxWx,2013-01-13 19:44:00,
2013-01-13 14:49:00,48.0,48.0,29.71,WSW,247,6.0,10.0,100,0.00,,,0.09,TxWx,2013-01-13 19:49:00,
2013-01-13 14:54:00,48.0,48.0,29.71,SSW,202,3.0,5.0,100,0.00,,,0.09,TxWx,2013-01-13 19:54:00,
2013-01-13 15:00:00,48.0,48.0,29.71,SSE,157,4.0,5.0,100,0.00,,,0.09,TxWx,2013-01-13 20:00:00,
2013-01-13 15:05:00,47.0,47.0,29.71,WNW,292,4.0,4.0,100,0.00,,,0.09,TxWx,2013-01-13 20:05:00,
2013-01-13 15:10:00,47.0,47.0,29.71,South,180,2.0,2.0,100,0.00,,,0.09,TxWx,2013-01-13 20:10:00,
2013-01-13 15:15:00,47.0,47.0,29.71,SE,135,3.0,3.0,100,0.00,,,0.09,TxWx,2013-01-13 20:15:00,
2013-01-13 15:20:00,47.0,47.0,29.71,North,0,2.0,2.0,100,0.00,,,0.09,TxWx,2013-01-13 20:20:00,
2013-01-13 15:25:00,47.0,47.0,29.71,SSW,202,0.0,0.0,100,0.00,,,0.09,TxWx,2013-01-13 20:25:00,
2013-01-13 15:30:00,47.0,47.0,29.72,WNW,292,1.0,2.0,100,0.00,,,0.09,TxWx,2013-01-13 20:30:00,
2013-01-13 15:35:00,47.0,47.0,29.72,NNE,22,2.0,3.0,100,0.00,,,0.09,TxWx,2013-01-13 20:35:00,
2013-01-13 15:40:00,47.0,47.0,29.72,NE,45,1.0,2.0,100,0.00,,,0.09,TxWx,2013-01-13 20:40:00,
2013-01-13 15:45:00,47.0,47.0,29.72,SSW,202,1.0,1.0,100,0.00,,,0.09,TxWx,2013-01-13 20:45:00,
2013-01-13 15:50:00,47.0,47.0,29.72,SE,135,1.0,1.0,100,0.00,,,0.09,TxWx,2013-01-13 20:50:00,
2013-01-13 15:55:00,47.0,47.0,29.72,SSE,157,1.0,2.0,100,0.00,,,0.09,TxWx,2013-01-13 20:55:00,
2013-01-13 16:00:00,46.0,46.0,29.72,ENE,67,1.0,1.0,100,0.00,,,0.09,TxWx,2013-01-13 21:00:00,
2013-01-13 16:05:00,45.0,45.0,29.71,SE,135,2.0,2.0,100,0.00,,,0.09,TxWx,2013-01-13 21:05:00,
2013-01-13 16:10:00,45.0,45.0,29.71,ENE,67,5.0,5.0,100,0.00,,,0.09,TxWx,2013-01-13 21:10:00,
2013-01-13 16:15:00,45.0,45.0,29.72,SSE,157,2.0,3.0,100,0.00,,,0.09,TxWx,2013-01-13 21:15:00,
2013-01-13 16:21:00,46.0,46.0,29.73,South,180,3.0,3.0,100,0.00,,,0.09,TxWx,2013-01-13 21:21:00,
2013-01-13 16:26:00,47.0,47.0,29.73,SSW,202,0.0,0.0,100,0.00,,,0.09,TxWx,2013-01-13 21:26:00,
2013-01-13 16:31:00,47.0,47.0,29.73,ENE,67,2.0,3.0,100,0.00,,,0.09,TxWx,2013-01-13 21:31:00,
2013-01-13 16:36:00,46.0,46.0,29.73,SSW,202,1.0,1.0,100,0.00,,,0.09,TxWx,2013-01-13 21:36:00,
2013-01-13 16:41:00,46.0,46.0,29.73,NNE,22,3.0,3.0,100,0.00,,,0.09,TxWx,2013-01-13 21:41:00,
2013-01-13 16:46:00,46.0,46.0,29.74,ESE,112,3.0,3.0,100,0.00,,,0.09,TxWx,2013-01-13 21:46:00,
2013-01-13 16:51:00,46.0,46.0,29.74,ESE,112,1.0,2.0,100,0.00,,,0.09,TxWx,2013-01-13 21:51:00,
2013-01-13 16:56:00,45.0,45.0,29.74,ENE,67,1.0,1.0,100,0.00,,,0.09,TxWx,2013-01-13 21:56:00,
2013-01-13 17:01:00,45.0,45.0,29.74,ESE,112,1.0,2.0,100,0.00,,,0.09,TxWx,2013-01-13 22:01:00,
2013-01-13 17:06:00,44.0,44.0,29.73,SE,135,1.0,1.0,100,0.00,,,0.09,TxWx,2013-01-13 22:06:00,
2013-01-13 17:11:00,45.0,45.0,29.73,SE,135,2.0,2.0,100,0.00,,,0.09,TxWx,2013-01-13 22:11:00,
2013-01-13 17:16:00,45.0,45.0,29.73,SSE,157,3.0,4.0,100,0.00,,,0.09,TxWx,2013-01-13 22:16:00,
2013-01-13 17:21:00,46.0,46.0,29.73,SSE,157,3.0,3.0,100,0.00,,,0.09,TxWx,2013-01-13 22:21:00,
2013-01-13 17:26:00,47.0,47.0,29.73,SSE,157,3.0,3.0,100,0.00,,,0.09,TxWx,2013-01-13 22:26:00,
2013-01-13 17:31:00,47.0,47.0,29.73,SSW,202,0.0,0.0,100,0.00,,,0.09,TxWx,2013-01-13 22:31:00,
2013-01-13 17:36:00,47.0,47.0,29.74,South,180,1.0,1.0,100,0.00,,,0.09,TxWx,2013-01-13 22:36:00,
2013-01-13 17:41:00,46.0,46.0,29.74,South,180,1.0,1.0,100,0.00,,,0.09,TxWx,2013-01-13 22:41:00,
2013-01-13 17:46:00,46.0,46.0,29.75,SSW,202,0.0,1.0,100,0.00,,,0.09,TxWx,2013-01-13 22:46:00,
2013-01-13 17:51:00,45.0,45.0,29.75,SSE,157,0.0,0.0,100,0.00,,,0.09,TxWx,2013-01-13 22:51:00,
2013-01-13 17:56:00,44.0,44.0,29.75,ENE,67,2.0,3.0,100,0.00,,,0.09,TxWx,2013-01-13 22:56:00,
2013-01-13 18:01:00,44.0,44.0,29.75,SE,135,1.0,2.0,100,0.00,,,0.09,TxWx,2013-01-13 23:01:00,
2013-01-13 18:06:00,44.0,44.0,29.75,ENE,67,2.0,2.0,100,0.00,,,0.09,TxWx,2013-01-13 23:06:00,
2013-01-13 18:11:00,43.0,43.0,29.75,SW,225,1.0,1.0,100,0.00,,,0.09,TxWx,2013-01-13 23:11:00,
2013-01-13 18:16:00,43.0,43.0,29.75,East,90,2.0,2.0,100,0.00,,,0.09,TxWx,2013-01-13 23:16:00,
2013-01-13 18:22:00,43.0,43.0,29.75,South,180,0.0,0.0,100,0.00,,,0.09,TxWx,2013-01-13 23:22:00,
2013-01-13 18:27:00,43.0,43.0,29.75,SSW,202,1.0,1.0,100,0.00,,,0.09,TxWx,2013-01-13 23:27:00,
2013-01-13 18:32:00,43.0,43.0,29.75,South,180,1.0,1.0,100,0.00,,,0.09,TxWx,2013-01-13 23:32:00,
2013-01-13 18:37:00,43.0,43.0,29.75,SSW,202,0.0,0.0,100,0.00,,,0.09,TxWx,2013-01-13 23:37:00,
2013-01-13 18:42:00,43.0,43.0,29.75,South,180,1.0,1.0,100,0.00,,,0.09,TxWx,2013-01-13 23:42:00,
2013-01-13 18:47:00,43.0,43.0,29.75,NNE,22,2.0,3.0,100,0.00,,,0.09,TxWx,2013-01-13 23:47:00,
2013-01-13 18:52:00,42.0,42.0,29.75,South,180,0.0,1.0,100,0.00,,,0.09,TxWx,2013-01-13 23:52:00,
2013-01-13 18:57:00,41.0,41.0,29.75,SSW,202,1.0,2.0,100,0.00,,,0.09,TxWx,2013-01-13 23:57:00,
2013-01-13 19:02:00,40.0,40.0,29.74,North,0,2.0,3.0,100,0.00,,,0.09,TxWx,2013-01-14 00:02:00,
2013-01-13 19:07:00,40.0,40.0,29.74,East,90,3.0,3.0,100,0.00,,,0.09,TxWx,2013-01-14 00:07:00,
2013-01-13 19:12:00,40.0,40.0,29.74,WSW,247,3.0,3.0,100,0.00,,,0.09,TxWx,2013-01-14 00:12:00,
2013-01-13 19:17:00,39.0,39.0,29.75,WSW,247,1.0,1.0,100,0.00,,,0.09,TxWx,2013-01-14 00:17:00,
2013-01-13 19:22:00,40.0,40.0,29.75,SW,225,1.0,1.0,100,0.00,,,0.09,TxWx,2013-01-14 00:22:00,
2013-01-13 19:27:00,40.0,40.0,29.75,West,270,2.0,2.0,100,0.00,,,0.09,TxWx,2013-01-14 00:27:00,
2013-01-13 19:32:00,40.0,40.0,29.74,SE,135,1.0,1.0,100,0.00,,,0.09,TxWx,2013-01-14 00:32:00,
2013-01-13 19:37:00,41.0,41.0,29.74,SW,225,1.0,1.0,100,0.00,,,0.09,TxWx,2013-01-14 00:37:00,
2013-01-13 19:43:00,40.0,40.0,29.75,SSW,202,1.0,1.0,100,0.00,,,0.09,TxWx,2013-01-14 00:43:00,
2013-01-13 19:48:00,41.0,41.0,29.74,NNE,22,3.0,3.0,100,0.00,,,0.09,TxWx,2013-01-14 00:48:00,
2013-01-13 19:53:00,41.0,41.0,29.74,SE,135,1.0,2.0,100,0.00,,,0.09,TxWx,2013-01-14 00:53:00,
2013-01-13 19:58:00,42.0,42.0,29.74,NNE,22,3.0,4.0,100,0.00,,,0.09,TxWx,2013-01-14 00:58:00,
2013-01-13 20:03:00,42.0,42.0,29.74,South,180,0.0,1.0,100,0.00,,,0.09,TxWx,2013-01-14 01:03:00,
2013-01-13 20:08:00,42.0,42.0,29.74,NE,45,2.0,3.0,100,0.00,,,0.09,TxWx,2013-01-14 01:08:00,
2013-01-13 20:13:00,42.0,42.0,29.74,SSW,202,2.0,2.0,100,0.00,,,0.09,TxWx,2013-01-14 01:13:00,
2013-01-13 20:18:00,41.0,41.0,29.73,South,180,1.0,2.0,100,0.00,,,0.09,TxWx,2013-01-14 01:18:00,
2013-01-13 20:23:00,43.0,43.0,29.73,SE,135,5.0,5.0,100,0.00,,,0.09,TxWx,2013-01-14 01:23:00,
2013-01-13 20:28:00,43.0,43.0,29.73,South,180,1.0,3.0,100,0.00,,,0.09,TxWx,2013-01-14 01:28:00,
2013-01-13 20:33:00,43.0,43.0,29.73,SE,135,1.0,3.0,100,0.00,,,0.09,TxWx,2013-01-14 01:33:00,
2013-01-13 20:38:00,42.0,42.0,29.73,NNW,337,3.0,3.0,100,0.00,,,0.09,TxWx,2013-01-14 01:38:00,
2013-01-13 20:43:00,42.0,42.0,29.73,West,270,3.0,3.0,100,0.00,,,0.09,TxWx,2013-01-14 01:43:00,
2013-01-13 20:48:00,42.0,42.0,29.72,SW,225,1.0,1.0,100,0.00,,,0.09,TxWx,2013-01-14 01:48:00,
2013-01-13 20:53:00,42.0,42.0,29.72,SSW,202,1.0,1.0,100,0.00,,,0.09,TxWx,2013-01-14 01:53:00,
2013-01-13 20:59:00,42.0,42.0,29.72,South,180,1.0,1.0,100,0.00,,,0.09,TxWx,2013-01-14 01:59:00,
2013-01-13 21:04:00,42.0,42.0,29.72,SE,135,1.0,1.0,100,0.00,,,0.09,TxWx,2013-01-14 02:04:00,
2013-01-13 21:09:00,41.0,41.0,29.72,SE,135,1.0,1.0,100,0.00,,,0.09,TxWx,2013-01-14 02:09:00,
2013-01-13 21:14:00,41.0,41.0,29.72,ESE,112,1.0,2.0,100,0.00,,,0.09,TxWx,2013-01-14 02:14:00,
2013-01-13 21:19:00,41.0,41.0,29.72,South,180,1.0,1.0,100,0.00,,,0.09,TxWx,2013-01-14 02:19:00,
2013-01-13 21:24:00,41.0,41.0,29.72,East,90,2.0,3.0,100,0.00,,,0.09,TxWx,2013-01-14 02:24:00,
2013-01-13 21:29:00,41.0,41.0,29.72,NE,45,2.0,2.0,100,0.00,,,0.09,TxWx,2013-01-14 02:29:00,
2013-01-13 21:34:00,40.0,40.0,29.72,SE,135,1.0,2.0,100,0.00,,,0.09,TxWx,2013-01-14 02:34:00,
2013-01-13 21:39:00,40.0,40.0,29.72,NW,315,2.0,3.0,100,0.00,,,0.09,TxWx,2013-01-14 02:39:00,
2013-01-13 21:44:00,40.0,40.0,29.72,South,180,1.0,1.0,100,0.00,,,0.09,TxWx,2013-01-14 02:44:00,
2013-01-13 21:49:00,40.0,40.0,29.73,ESE,112,1.0,1.0,100,0.00,,,0.09,TxWx,2013-01-14 02:49:00,
2013-01-13 21:55:00,40.0,40.0,29.72,NNE,22,3.0,4.0,100,0.00,,,0.09,TxWx,2013-01-14 02:55:00,
2013-01-13 22:00:00,40.0,40.0,29.73,NE,45,2.0,3.0,100,0.00,,,0.09,TxWx,2013-01-14 03:00:00,
2013-01-13 22:05:00,40.0,40.0,29.73,South,180,1.0,2.0,100,0.00,,,0.09,TxWx,2013-01-14 03:05:00,
2013-01-13 22:10:00,40.0,40.0,29.74,SSE,157,1.0,1.0,100,0.00,,,0.09,TxWx,2013-01-14 03:10:00,
2013-01-13 22:15:00,40.0,40.0,29.74,NE,45,1.0,2.0,100,0.00,,,0.09,TxWx,2013-01-14 03:15:00,
2013-01-13 22:20:00,40.0,40.0,29.73,SE,135,2.0,3.0,100,0.00,,,0.09,TxWx,2013-01-14 03:20:00,
2013-01-13 22:25:00,40.0,40.0,29.73,SW,225,1.0,1.0,100,0.00,,,0.09,TxWx,2013-01-14 03:25:00,
2013-01-13 22:30:00,41.0,41.0,29.73,SE,135,2.0,2.0,100,0.00,,,0.09,TxWx,2013-01-14 03:30:00,
2013-01-13 22:35:00,41.0,41.0,29.73,SE,135,0.0,0.0,100,0.00,,,0.09,TxWx,2013-01-14 03:35:00,
2013-01-13 22:40:00,42.0,42.0,29.73,NE,45,2.0,3.0,100,0.00,,,0.09,TxWx,2013-01-14 03:40:00,
2013-01-13 22:45:00,41.0,41.0,29.73,ENE,67,2.0,2.0,100,0.00,,,0.09,TxWx,2013-01-14 03:45:00,
2013-01-13 22:50:00,41.0,41.0,29.73,SE,135,1.0,1.0,100,0.00,,,0.09,TxWx,2013-01-14 03:50:00,
2013-01-13 22:55:00,41.0,41.0,29.73,SSE,157,0.0,0.0,100,0.00,,,0.09,TxWx,2013-01-14 03:55:00,
2013-01-13 23:00:00,41.0,41.0,29.73,NE,45,2.0,2.0,100,0.00,,,0.09,TxWx,2013-01-14 04:00:00,
2013-01-13 23:06:00,41.0,41.0,29.73,NNE,22,2.0,3.0,100,0.00,,,0.09,TxWx,2013-01-14 04:06:00,
2013-01-13 23:11:00,41.0,41.0,29.72,NE,45,2.0,3.0,100,0.00,,,0.09,TxWx,2013-01-14 04:11:00,
2013-01-13 23:16:00,41.0,41.0,29.72,NE,45,2.0,2.0,100,0.00,,,0.09,TxWx,2013-01-14 04:16:00,
2013-01-13 23:21:00,41.0,41.0,29.72,NNW,337,2.0,2.0,100,0.00,,,0.09,TxWx,2013-01-14 04:21:00,
2013-01-13 23:26:00,42.0,42.0,29.72,NW,315,1.0,1.0,100,0.00,,,0.09,TxWx,2013-01-14 04:26:00,
2013-01-13 23:31:00,42.0,42.0,29.73,NE,45,1.0,2.0,100,0.00,,,0.09,TxWx,2013-01-14 04:31:00,
2013-01-13 23:36:00,42.0,42.0,29.73,ESE,112,2.0,2.0,100,0.00,,,0.09,TxWx,2013-01-14 04:36:00,
2013-01-13 23:41:00,42.0,42.0,29.71,South,180,1.0,1.0,100,0.00,,,0.09,TxWx,2013-01-14 04:41:00,
2013-01-13 23:46:00,41.0,41.0,29.71,South,180,2.0,2.0,100,0.00,,,0.09,TxWx,2013-01-14 04:46:00,
2013-01-13 23:51:00,42.0,42.0,29.71,SE,135,1.0,1.0,100,0.00,,,0.09,TxWx,2013-01-14 04:51:00,
2013-01-13 23:56:00,42.0,42.0,29.71,NE,45,2.0,2.0,100,0.00,,,0.09,TxWx,2013-01-14 04:56:00,